Terminal Aerodrome Forecast
Issued by NWS

Home | Current Version | Previous Version | Text Only | Print | Product List | Glossary On
Versions: 1 2 3 4 5 6 7 8 9 10 11 12 13 14 15 16 17 18
012
FTUS41 KBTV 272333
TAFMSS
TAF
KMSS 272333Z 2800/2824 06009KT P6SM SCT200
     FM280300 18007KT P6SM BKN070
     FM280500 20008G14KT 4SM -SHRA BR OVC035
     FM280800 21011KT P6SM OVC040
     FM281200 23012G20KT P6SM SCT040
     FM281700 23013KT P6SM FEW150=

USA.gov is the U.S. government's official web portal to all federal, state and local government web resources and services.